createdAt,value
2018-12-24T00:02:05.208Z,0.60
2018-12-24T00:04:50.898Z,0.70
2018-12-24T00:07:19.442Z,0.60
2018-12-24T00:09:55.996Z,0.90
2018-12-24T00:12:27.318Z,0.57
2018-12-24T00:15:00.731Z,0.50
2018-12-24T00:17:50.866Z,0.47
2018-12-24T00:20:26.882Z,0.43
2018-12-24T00:23:07.097Z,0.50
2018-12-24T00:25:56.122Z,0.47
2018-12-24T00:28:40.501Z,0.60
2018-12-24T00:31:20.264Z,0.40
2018-12-24T00:34:03.233Z,0.50
2018-12-24T00:36:58.421Z,0.50
2018-12-24T00:40:02.974Z,0.40
2018-12-24T00:42:45.419Z,0.50
2018-12-24T00:45:21.961Z,0.40
2018-12-24T00:47:59.164Z,0.50
2018-12-24T00:50:27.841Z,0.40
2018-12-24T00:53:06.536Z,0.50
2018-12-24T00:55:51.089Z,0.50
2018-12-24T00:58:21.767Z,0.40
2018-12-24T01:01:12.595Z,0.40
2018-12-24T01:03:55.229Z,0.40
2018-12-24T01:06:35.437Z,0.47
2018-12-24T01:09:16.359Z,0.40
2018-12-24T01:11:52.813Z,0.50
2018-12-24T01:14:30.801Z,0.50
2018-12-24T01:17:09.021Z,0.50
2018-12-24T01:19:37.671Z,0.40
2018-12-24T01:22:07.719Z,0.40
2018-12-24T01:24:36.351Z,0.60
2018-12-24T01:27:07.900Z,0.40
2018-12-24T01:29:37.853Z,0.47
2018-12-24T01:32:06.445Z,0.40
2018-12-24T01:34:36.313Z,0.40
2018-12-24T01:37:04.900Z,0.70
2018-12-24T01:39:33.783Z,0.50
2018-12-24T01:42:03.154Z,0.50
2018-12-24T01:44:34.379Z,0.50
2018-12-24T01:47:02.841Z,0.37
2018-12-24T01:49:31.953Z,0.30
2018-12-24T01:52:03.242Z,0.40
2018-12-24T01:54:31.778Z,0.50
2018-12-24T01:57:00.320Z,0.40
2018-12-24T01:59:28.803Z,0.40
2018-12-24T02:01:57.726Z,0.57
2018-12-24T02:04:29.878Z,0.37
2018-12-24T02:07:01.244Z,0.63
2018-12-24T02:09:29.887Z,0.40
2018-12-24T02:11:58.322Z,0.33
2018-12-24T02:14:26.860Z,0.50
2018-12-24T02:16:55.257Z,0.40
2018-12-24T02:19:23.798Z,0.40
2018-12-24T02:21:52.065Z,0.50
2018-12-24T02:24:20.276Z,0.50
2018-12-24T02:26:48.896Z,0.40
2018-12-24T02:29:22.299Z,0.50
2018-12-24T02:31:50.440Z,0.40
2018-12-24T02:34:19.120Z,0.50
2018-12-24T02:36:48.903Z,0.60
2018-12-24T02:39:17.392Z,0.57
2018-12-24T02:42:02.213Z,0.50
2018-12-24T02:44:31.111Z,0.60
2018-12-24T02:47:11.739Z,0.50
2018-12-24T02:49:40.425Z,0.50
2018-12-24T02:52:09.328Z,0.77
2018-12-24T02:54:37.648Z,0.50
2018-12-24T02:57:05.904Z,0.50
2018-12-24T02:59:34.235Z,0.70
2018-12-24T03:02:02.668Z,0.50
2018-12-24T03:04:30.809Z,0.43
2018-12-24T03:06:59.028Z,0.40
2018-12-24T03:09:27.218Z,0.60
2018-12-24T03:11:56.042Z,0.40
2018-12-24T03:14:24.488Z,0.50
2018-12-24T03:16:53.003Z,0.60
2018-12-24T03:19:21.941Z,0.60
2018-12-24T03:21:50.382Z,0.50
2018-12-24T03:24:18.871Z,0.50
2018-12-24T03:26:47.513Z,0.50
2018-12-24T03:29:15.857Z,0.47
2018-12-24T03:31:52.134Z,0.40
2018-12-24T03:34:20.149Z,0.60
2018-12-24T03:36:50.675Z,0.50
2018-12-24T03:39:19.298Z,0.50
2018-12-24T03:41:47.695Z,0.60
2018-12-24T03:44:16.052Z,0.50
2018-12-24T03:46:44.574Z,0.60
2018-12-24T03:49:13.608Z,0.50
2018-12-24T03:51:41.919Z,0.57
2018-12-24T03:54:10.314Z,0.50
2018-12-24T03:56:38.513Z,0.70
2018-12-24T03:59:07.113Z,0.60
2018-12-24T04:01:36.061Z,0.60
2018-12-24T04:04:05.979Z,0.50
2018-12-24T04:06:34.550Z,0.73
2018-12-24T04:09:04.076Z,0.50
2018-12-24T04:11:32.418Z,0.50
2018-12-24T04:14:00.775Z,0.50
2018-12-24T04:16:29.335Z,0.50
2018-12-24T04:18:57.448Z,0.50
2018-12-24T04:21:25.698Z,0.40
2018-12-24T04:23:53.864Z,0.40
2018-12-24T04:26:24.750Z,0.40
2018-12-24T04:28:53.237Z,0.50
2018-12-24T04:31:23.348Z,0.60
2018-12-24T04:33:53.940Z,0.50
2018-12-24T04:36:22.481Z,0.70
2018-12-24T04:38:51.738Z,0.40
2018-12-24T04:41:20.147Z,0.57
2018-12-24T04:43:48.530Z,0.50
2018-12-24T04:46:16.847Z,0.50
2018-12-24T04:48:45.249Z,0.50
2018-12-24T04:51:13.704Z,0.50
2018-12-24T04:53:42.186Z,0.60
2018-12-24T04:56:12.847Z,0.70
2018-12-24T04:58:41.228Z,0.70
2018-12-24T05:01:09.618Z,0.70
2018-12-24T05:03:38.246Z,0.70
2018-12-24T05:06:07.894Z,0.50
2018-12-24T05:08:36.338Z,0.77
2018-12-24T05:11:04.647Z,0.60
2018-12-24T05:13:40.677Z,0.80
2018-12-24T05:16:03.430Z,0.90
2018-12-24T05:18:31.930Z,0.60
2018-12-24T05:21:00.230Z,0.50
2018-12-24T05:23:29.294Z,0.50
2018-12-24T05:25:57.502Z,0.50
2018-12-24T05:28:25.945Z,1.30
2018-12-24T05:30:54.581Z,0.60
2018-12-24T05:33:23.148Z,0.60
2018-12-24T05:35:51.614Z,0.40
2018-12-24T05:38:19.983Z,0.50
2018-12-24T05:40:48.409Z,0.60
2018-12-24T05:43:16.794Z,0.90
2018-12-24T05:45:44.972Z,0.60
2018-12-24T05:48:15.354Z,0.60
2018-12-24T05:50:46.004Z,0.60
2018-12-24T05:53:14.122Z,0.83
2018-12-24T05:55:42.405Z,0.40
2018-12-24T05:58:10.868Z,0.80
2018-12-24T06:00:41.141Z,0.50
2018-12-24T06:03:09.589Z,0.77
2018-12-24T06:05:38.168Z,0.60
2018-12-24T06:08:06.663Z,0.80
2018-12-24T06:10:38.731Z,0.67
2018-12-24T06:13:07.177Z,1.00
2018-12-24T06:15:35.758Z,0.60
2018-12-24T06:18:04.285Z,0.80
2018-12-24T06:20:37.683Z,0.70
2018-12-24T06:23:05.575Z,0.70
2018-12-24T06:25:34.150Z,0.90
2018-12-24T06:28:02.670Z,0.90
2018-12-24T06:30:32.615Z,1.20
2018-12-24T06:33:01.065Z,1.27
2018-12-24T06:35:29.617Z,1.10
2018-12-24T06:38:00.502Z,0.70
2018-12-24T06:40:39.278Z,0.90
2018-12-24T06:43:07.922Z,0.87
2018-12-24T06:45:36.586Z,0.80
2018-12-24T06:48:07.391Z,0.70
2018-12-24T06:50:35.728Z,0.90
2018-12-24T06:53:18.000Z,1.00
2018-12-24T06:55:49.169Z,0.97
2018-12-24T06:58:18.523Z,0.93
2018-12-24T07:00:50.273Z,1.03
2018-12-24T07:03:18.966Z,1.07
2018-12-24T07:05:50.317Z,0.93
2018-12-24T07:08:22.628Z,0.90
2018-12-24T07:10:51.549Z,0.80
2018-12-24T07:13:26.442Z,1.10
2018-12-24T07:16:09.988Z,1.00
2018-12-24T07:18:43.868Z,1.00
2018-12-24T07:21:15.600Z,0.90
2018-12-24T07:23:49.305Z,0.87
2018-12-24T07:26:22.038Z,1.10
2018-12-24T07:28:59.061Z,0.67
2018-12-24T07:31:25.926Z,1.13
2018-12-24T07:33:54.144Z,0.90
2018-12-24T07:36:47.424Z,1.00
2018-12-24T07:39:26.376Z,1.10
2018-12-24T07:42:06.865Z,1.10
2018-12-24T07:44:35.722Z,1.20
2018-12-24T07:47:04.318Z,1.30
2018-12-24T07:49:56.109Z,1.27
2018-12-24T07:52:24.202Z,1.30
2018-12-24T07:55:25.191Z,1.50
2018-12-24T07:57:56.880Z,1.90
2018-12-24T08:00:30.410Z,2.00
2018-12-24T08:03:45.152Z,1.70
2018-12-24T08:06:15.660Z,1.60
2018-12-24T08:09:09.974Z,1.40
2018-12-24T08:11:49.766Z,1.90
2018-12-24T08:14:33.235Z,1.67
2018-12-24T08:17:04.717Z,2.17
2018-12-24T08:20:00.230Z,1.97
2018-12-24T08:22:52.799Z,1.53
2018-12-24T08:30:10.031Z,1.50
2018-12-24T08:32:57.469Z,2.07
2018-12-24T08:35:39.208Z,1.40
2018-12-24T08:39:01.665Z,1.60
2018-12-24T08:41:33.498Z,1.97
2018-12-24T08:44:06.158Z,2.10
2018-12-24T08:46:38.219Z,1.80
2018-12-24T08:49:07.470Z,1.70
2018-12-24T08:51:42.436Z,2.10
2018-12-24T08:54:14.510Z,1.27
2018-12-24T08:56:45.945Z,1.97
2018-12-24T08:59:18.847Z,1.40
2018-12-24T09:01:47.645Z,2.00
2018-12-24T09:04:25.248Z,1.40
2018-12-24T09:07:06.161Z,1.70
2018-12-24T09:09:42.866Z,1.90
2018-12-24T09:12:12.997Z,1.37
2018-12-24T09:14:50.057Z,1.63
2018-12-24T09:17:23.630Z,1.80
2018-12-24T09:20:01.754Z,1.30
2018-12-24T09:22:46.694Z,1.50
2018-12-24T09:28:21.227Z,1.57
2018-12-24T09:31:48.413Z,1.93
2018-12-24T10:27:18.336Z,2.13
2018-12-24T10:29:54.120Z,2.73
2018-12-24T10:33:19.867Z,1.63
2018-12-24T10:51:49.914Z,2.57
2018-12-24T11:02:52.683Z,2.00
2018-12-24T11:09:31.794Z,1.87
2018-12-24T11:12:03.984Z,1.70
2018-12-24T11:14:48.338Z,1.63
2018-12-24T11:17:40.661Z,1.43
2018-12-24T11:21:02.188Z,1.60
2018-12-24T11:23:44.577Z,1.77
2018-12-24T11:26:25.790Z,1.50
2018-12-24T11:28:55.652Z,1.47
2018-12-24T11:31:24.305Z,1.37
2018-12-24T11:33:52.491Z,1.50
2018-12-24T11:36:37.894Z,1.30
2018-12-24T11:39:07.255Z,1.10
2018-12-24T11:41:38.733Z,1.17
2018-12-24T11:44:31.289Z,1.67
2018-12-24T11:47:41.366Z,1.30
2018-12-24T11:51:51.759Z,1.40
2018-12-24T11:53:24.623Z,1.97
2018-12-24T11:59:37.761Z,1.20
2018-12-24T12:02:31.697Z,1.17
2018-12-24T12:05:03.738Z,1.20
2018-12-24T12:08:21.439Z,1.20
2018-12-24T12:10:49.338Z,2.67
2018-12-24T12:13:38.904Z,1.20
2018-12-24T12:16:16.800Z,1.40
2018-12-24T12:18:45.129Z,1.20
2018-12-24T12:21:16.123Z,0.90
2018-12-24T12:23:46.957Z,1.00
2018-12-24T12:26:17.646Z,2.40
2018-12-24T12:28:45.929Z,1.77
2018-12-24T12:31:13.976Z,1.90
2018-12-24T12:33:44.863Z,3.00
2018-12-24T12:36:13.418Z,4.40
2018-12-24T12:38:41.848Z,3.40
2018-12-24T12:44:18.437Z,3.90
2018-12-24T12:46:49.892Z,2.97
2018-12-24T12:49:19.563Z,3.23
2018-12-24T12:51:51.163Z,4.03
2018-12-24T12:54:25.229Z,4.10
2018-12-24T12:56:58.833Z,2.20
2018-12-24T12:59:27.776Z,2.80
2018-12-24T13:01:57.334Z,2.90
2018-12-24T13:04:26.347Z,2.17
2018-12-24T13:06:54.971Z,1.63
2018-12-24T13:09:24.457Z,5.50
2018-12-24T13:11:53.336Z,3.10
2018-12-24T13:14:22.507Z,1.60
2018-12-24T13:16:51.354Z,3.00
2018-12-24T13:19:26.863Z,6.27
2018-12-24T13:21:55.227Z,3.17
2018-12-24T13:24:23.871Z,2.60
2018-12-24T13:26:56.733Z,2.30
2018-12-24T13:29:29.828Z,2.73
2018-12-24T13:31:57.961Z,3.37
2018-12-24T13:34:26.727Z,3.57
2018-12-24T13:38:05.234Z,4.37
2018-12-24T13:40:33.938Z,4.80
2018-12-24T13:43:20.921Z,5.33
2018-12-24T14:00:04.302Z,3.67
2018-12-24T14:10:02.553Z,5.63
2018-12-24T14:12:42.481Z,5.23
2018-12-24T14:16:47.607Z,4.73
2018-12-24T14:34:26.495Z,4.70
2018-12-24T14:40:35.696Z,4.60
2018-12-24T14:47:07.564Z,4.10
2018-12-24T15:00:49.576Z,2.70
2018-12-24T15:03:41.029Z,2.57
2018-12-24T15:06:42.670Z,2.20
2018-12-24T15:13:05.319Z,2.50
2018-12-24T15:16:12.495Z,3.00
2018-12-24T15:19:11.490Z,3.07
2018-12-24T15:22:32.623Z,2.50
2018-12-24T15:25:51.907Z,3.00
2018-12-24T15:28:51.012Z,3.47
2018-12-24T15:31:35.541Z,2.63
2018-12-24T15:44:05.007Z,3.30
2018-12-24T15:46:33.175Z,3.47
2018-12-24T15:49:00.988Z,3.07
2018-12-24T15:51:28.755Z,3.37
2018-12-24T15:53:57.987Z,4.13
2018-12-24T15:56:25.958Z,5.70
2018-12-24T15:58:55.197Z,5.47
2018-12-24T16:01:23.641Z,4.50
2018-12-24T16:03:51.681Z,5.70
2018-12-24T16:06:19.558Z,4.50
2018-12-24T16:08:47.644Z,4.63
2018-12-24T16:11:18.901Z,4.80
2018-12-24T16:13:46.688Z,4.33
2018-12-24T16:16:14.713Z,4.17
2018-12-24T16:18:43.416Z,4.13
2018-12-24T16:21:10.986Z,3.97
2018-12-24T16:23:38.694Z,3.20
2018-12-24T16:26:06.338Z,3.73
2018-12-24T16:28:38.574Z,3.80
2018-12-24T16:31:06.308Z,4.33
2018-12-24T16:33:41.351Z,4.63
2018-12-24T16:36:05.015Z,4.80
2018-12-24T16:38:33.311Z,4.73
2018-12-24T16:41:07.449Z,4.03
2018-12-24T16:43:55.377Z,5.10
2018-12-24T16:46:28.583Z,4.80
2018-12-24T16:49:01.721Z,4.50
2018-12-24T16:51:29.923Z,4.17
2018-12-24T16:53:57.600Z,3.70
2018-12-24T16:56:47.244Z,3.10
2018-12-24T16:59:49.103Z,3.43
2018-12-24T17:02:22.662Z,3.87
2018-12-24T17:05:00.491Z,4.03
2018-12-24T17:07:37.798Z,5.57
2018-12-24T17:10:13.402Z,5.70
2018-12-24T17:13:09.636Z,6.03
2018-12-24T17:16:32.911Z,4.77
2018-12-24T17:19:21.194Z,5.67
2018-12-24T17:22:00.809Z,5.83
2018-12-24T17:24:47.543Z,5.43
2018-12-24T17:27:21.395Z,4.97
2018-12-24T17:36:03.831Z,5.13
2018-12-24T17:38:43.277Z,5.00
2018-12-24T17:41:08.176Z,4.83
2018-12-24T17:44:30.960Z,4.47
2018-12-24T17:46:59.341Z,5.23
2018-12-24T17:49:31.519Z,5.10
2018-12-24T17:51:59.253Z,5.00
2018-12-24T17:54:27.054Z,5.50
2018-12-24T17:56:58.629Z,10.90
2018-12-24T17:59:26.128Z,13.80
2018-12-24T18:01:55.127Z,13.80
2018-12-24T18:04:26.319Z,15.20
2018-12-24T18:06:55.011Z,12.20
2018-12-24T18:09:23.064Z,11.40
2018-12-24T18:11:50.636Z,10.40
2018-12-24T18:14:18.380Z,9.20
2018-12-24T18:16:46.178Z,6.40
2018-12-24T18:19:14.344Z,7.67
2018-12-24T18:21:42.131Z,7.10
2018-12-24T18:24:09.869Z,7.17
2018-12-24T18:26:37.613Z,8.33
2018-12-24T18:29:05.490Z,7.83
2018-12-24T18:31:33.269Z,8.00
2018-12-24T18:34:01.334Z,7.83
2018-12-24T18:36:32.029Z,7.90
2018-12-24T18:38:59.879Z,8.03
2018-12-24T18:41:32.835Z,9.47
2018-12-24T18:44:10.712Z,7.47
2018-12-24T18:47:07.043Z,7.77
2018-12-24T18:49:41.675Z,8.23
2018-12-24T18:52:14.586Z,7.93
2018-12-24T18:54:46.876Z,6.90
2018-12-24T18:57:17.601Z,7.37
2018-12-24T18:59:55.352Z,16.20
2018-12-24T19:02:30.463Z,9.70
2018-12-24T19:05:16.497Z,7.30
2018-12-24T19:07:38.818Z,8.10
2018-12-24T19:13:20.277Z,8.27
2018-12-24T19:15:57.987Z,8.87
2018-12-24T19:18:45.987Z,7.80
2018-12-24T19:21:19.906Z,8.30
2018-12-24T19:23:54.857Z,9.83
2018-12-24T19:26:31.270Z,13.00
2018-12-24T19:29:05.509Z,13.50
2018-12-24T19:31:38.166Z,14.23
2018-12-24T19:34:29.657Z,16.90
2018-12-24T19:37:16.725Z,14.53
2018-12-24T19:39:53.710Z,14.07
2018-12-24T19:42:31.435Z,14.00
2018-12-24T19:45:18.711Z,14.80
2018-12-24T19:47:50.069Z,13.90
2018-12-24T19:50:17.990Z,15.97
2018-12-24T19:52:46.745Z,13.83
2018-12-24T19:55:14.754Z,13.10
2018-12-24T19:57:43.676Z,13.57
2018-12-24T20:00:11.352Z,12.40
2018-12-24T20:02:38.977Z,14.60
2018-12-24T20:05:09.314Z,12.17
2018-12-24T20:07:38.591Z,13.43
2018-12-24T20:10:32.711Z,11.87
2018-12-24T20:13:22.309Z,12.37
2018-12-24T20:16:00.284Z,12.07
2018-12-24T20:18:45.989Z,12.10
2018-12-24T20:21:16.175Z,11.40
2018-12-24T20:24:04.612Z,9.73
2018-12-24T20:26:36.623Z,10.23
2018-12-24T20:29:22.645Z,10.70
2018-12-24T20:31:54.478Z,9.90
2018-12-24T20:34:27.152Z,9.27
2018-12-24T20:36:57.716Z,9.87
2018-12-24T20:39:25.504Z,11.20
2018-12-24T20:41:53.304Z,10.63
2018-12-24T20:44:21.598Z,9.97
2018-12-24T20:46:51.701Z,9.80
2018-12-24T20:49:19.734Z,9.90
2018-12-24T20:51:47.629Z,9.43
2018-12-24T20:54:15.700Z,10.10
2018-12-24T20:56:59.854Z,10.70
2018-12-24T20:59:27.504Z,10.20
2018-12-24T21:01:55.760Z,12.10
2018-12-24T21:05:16.745Z,10.90
2018-12-24T21:07:16.863Z,10.27
2018-12-24T21:09:48.862Z,12.53
2018-12-24T21:12:19.035Z,10.53
2018-12-24T21:14:46.884Z,11.63
2018-12-24T21:17:14.477Z,10.50
2018-12-24T21:19:47.761Z,11.50
2018-12-24T21:22:24.371Z,11.73
2018-12-24T21:24:57.704Z,13.20
2018-12-24T21:27:26.712Z,15.07
2018-12-24T21:29:54.780Z,14.10
2018-12-24T21:32:23.200Z,15.83
2018-12-24T21:34:51.586Z,14.87
2018-12-24T21:37:19.952Z,14.60
2018-12-24T21:39:48.613Z,13.37
2018-12-24T21:42:16.572Z,13.60
2018-12-24T21:44:53.545Z,13.40
2018-12-24T21:47:21.854Z,12.03
2018-12-24T21:49:59.675Z,13.53
2018-12-24T21:52:44.247Z,14.50
2018-12-24T21:55:18.214Z,13.17
2018-12-24T21:58:23.017Z,13.40
2018-12-24T22:00:51.474Z,14.07
2018-12-24T22:03:21.913Z,14.37
2018-12-24T22:05:50.474Z,11.87
2018-12-24T22:08:18.832Z,12.70
2018-12-24T22:10:51.611Z,13.30
2018-12-24T22:13:22.986Z,12.03
2018-12-24T22:15:53.121Z,11.47
2018-12-24T22:18:32.208Z,13.87
2018-12-24T22:21:02.955Z,12.80
2018-12-24T22:23:32.476Z,11.63
2018-12-24T22:26:00.661Z,11.90
2018-12-24T22:28:29.174Z,12.80
2018-12-24T22:30:57.278Z,12.30
2018-12-24T22:33:27.006Z,12.30
2018-12-24T22:36:03.696Z,11.47
2018-12-24T22:38:34.849Z,10.50
2018-12-24T22:41:06.351Z,10.27
2018-12-24T22:43:42.889Z,10.90
2018-12-24T22:46:12.979Z,10.17
2018-12-24T22:48:45.581Z,11.70
2018-12-24T22:51:16.656Z,11.70
2018-12-24T22:53:45.855Z,10.13
2018-12-24T22:56:18.514Z,10.53
2018-12-24T22:58:47.401Z,11.53
2018-12-24T23:01:24.393Z,11.03
2018-12-24T23:03:57.524Z,10.47
2018-12-24T23:06:27.230Z,12.67
2018-12-24T23:08:58.438Z,11.67
2018-12-24T23:11:26.865Z,11.60
2018-12-24T23:14:06.040Z,10.40
2018-12-24T23:16:35.788Z,11.27
2018-12-24T23:19:05.773Z,12.10
2018-12-24T23:21:39.372Z,12.87
2018-12-24T23:24:11.000Z,11.43
2018-12-24T23:26:42.085Z,11.97
2018-12-24T23:29:18.899Z,12.53
2018-12-24T23:31:47.016Z,13.17
2018-12-24T23:34:16.152Z,13.20
2018-12-24T23:36:49.675Z,12.50
2018-12-24T23:39:24.750Z,11.67
2018-12-24T23:41:57.805Z,14.30
2018-12-24T23:44:33.668Z,11.87
2018-12-24T23:47:02.477Z,11.83
2018-12-24T23:49:32.842Z,11.77
2018-12-24T23:52:03.426Z,12.93
2018-12-24T23:54:34.064Z,10.87
2018-12-24T23:57:02.445Z,10.17
2018-12-24T23:59:30.870Z,9.93
